Sedgwick Reserve, California Weather observations

Data are for 10 minute period ending at time listed.
 Day   Time   Solar   Ave.   Ave.  Ave.  Vector  Max.   Baro.   Total    
  of    of     Rad.   Air    Rel.  Wind   Wind   Wind  Press.  Precip.   
Year   Day            Temp.  Hum.  Speed  Dir.   Gust                    
2026   (PST)  Kw/m2    F      %     mph   deg.    mph    mb.     in.     
-------------------------------------------------------------------------
 127    4:40   0.00   44.2   100    0.6    22     2.4   975.5    0.00 
 127    4:50   0.00   44.0   100    0.0     0     0.0   975.5    0.00 
 127    5:00   0.00   43.4   100    0.0     0     0.0   975.5    0.00 
 127    5:10   0.00   43.0   100    0.8    11     1.5   975.6    0.00 
 127    5:20   0.01   42.5   100    1.6    15     2.7   975.6    0.00 
 127    5:30   0.01   42.5   100    1.2   325     1.8   975.8    0.00 
 127    5:40   0.02   42.5   100    0.0   287     0.4   975.9    0.00 
 127    5:50   0.03   43.2   100    0.9   359     2.4   976.0    0.00 
 127    6:00   0.09   43.4   100    0.9    11     3.0   976.1    0.00 
 127    6:10   0.14   45.1   100    0.5    32     1.5   976.1    0.00 
 127    6:20   0.17   45.9   100    0.5    59     1.5   976.1    0.00 
 127    6:30   0.21   48.1   100    0.4   158     1.6   976.1    0.00 
 127    6:40   0.24   49.6   100    0.4    84     1.8   976.2    0.00 
 127    6:50   0.28   51.3   100    1.2   114     2.1   976.2    0.00 
 127    7:00   0.31   51.8   100    0.5   146     1.8   976.3    0.00 
 127    7:10   0.35   53.6    99    1.2   115     2.9   976.3    0.00 
 127    7:20   0.39   53.7    97    1.4   160     3.2   976.3    0.00 
 127    7:30   0.42   55.6    94    2.2   116     4.2   976.3    0.00 
 127    7:40   0.45   56.9    88    2.0   126     3.4   976.2    0.00 
 127    7:50   0.48   58.5    84    1.7   157     4.2   976.3    0.00 
 127    8:00   0.52   60.0    79    2.0   162     4.5   976.2    0.00 
 127    8:10   0.55   61.7    74    2.2   147     5.6   976.2    0.00 
 127    8:20   0.58   63.2    70    2.6   152     4.4   976.1    0.00 
 127    8:30   0.61   63.9    69    1.6   179     4.9   976.0    0.00 
 127    8:40   0.64   65.8    65    2.6   142     5.6   975.9    0.00 
 127    8:50   0.67   67.2    63    3.7   136     6.9   975.9    0.00 
 127    9:00   0.70   67.8    62    3.4   150     7.7   975.9    0.00 
 127    9:10   0.72   68.6    60    3.2   170     6.5   975.8    0.00 
 127    9:20   0.75   69.7    58    3.6   153     7.3   975.8    0.00 
 127    9:30   0.77   70.9    56    4.6   194     7.0   975.8    0.00 
 127    9:40   0.79   70.5    58    5.0   203     7.2   975.7    0.00 
 127    9:50   0.81   71.0    58    5.1   206     8.1   975.7    0.00 
 127   10:00   0.83   71.7    57    3.5   220     9.1   975.7    0.00 
 127   10:10   0.85   72.5    56    4.6   235     8.5   975.6    0.00 
 127   10:20   0.86   73.0    56    5.8   232    10.2   975.6    0.00 
 127   10:30   0.88   74.1    53    6.5   252    11.3   975.5    0.00 
 127   10:40   0.89   74.8    52    6.7   244    10.4   975.5    0.00 
 127   10:50   0.90   76.0    50    6.4   263    11.3   975.5    0.00 
 127   11:00   0.91   76.8    49    6.2   236    13.4   975.4    0.00 
 127   11:10   0.92   76.5    49    8.3   246    13.3   975.4    0.00 
 127   11:20   0.93   77.5    47    7.7   255    11.8   975.3    0.00 
 127   11:30   0.90   77.8    46   10.4   261    17.0   975.2    0.00 
 127   11:40   0.93   78.6    47    8.9   280    15.3   975.1    0.00 
 127   11:50   0.93   79.3    47    8.7   262    15.2   975.0    0.00 
 127   12:00   0.94   81.5    44    6.3   283    14.5   974.9    0.00 
 127   12:10   0.94   80.9    44    7.8   275    15.5   974.8    0.00 
 127   12:20   0.94   83.5    41    5.0   306     9.2   974.8    0.00 
 127   12:30   0.93   84.1    41    7.4   305    13.6   974.7    0.00 
 127   12:40   0.93   83.0    41    9.7   281    16.4   974.7    0.00 
 127   12:50   0.92   82.4    42    9.2   279    17.8   974.6    0.00 
 127   13:00   0.91   81.4    43   11.3   269    19.6   974.5    0.00 
 127   13:10   0.90   82.7    43    8.7   287    16.8   974.5    0.00 
 127   13:20   0.90   84.2    42    9.5   314    16.5   974.5    0.00 
 127   13:30   0.88   82.1    43   10.2   299    16.3   974.4    0.00 
 127   13:40   0.87   82.5    43    9.5   291    16.8   974.3    0.00 
 127   13:50   0.85   82.3    44    9.2   297    16.8   974.2    0.00 
 127   14:00   0.83   82.1    44   10.0   289    20.5   974.1    0.00 
 127   14:10   0.81   79.8    46   12.9   289    22.2   974.1    0.00 
 127   14:20   0.80   79.0    48   14.3   294    24.9   974.1    0.00 
 127   14:30   0.78   79.0    48   11.4   287    18.3   974.0    0.00 
 127   14:40   0.75   78.3    48   13.7   291    22.7   973.9    0.00 
 127   14:50   0.73   77.8    49   12.3   286    19.6   973.9    0.00 
 127   15:00   0.70   78.0    48   13.9   293    22.1   973.8    0.00 
 127   15:10   0.68   78.5    48   13.0   298    22.1   973.7    0.00 
 127   15:20   0.65   78.0    48   13.3   281    20.5   973.7    0.00 
 127   15:30   0.62   77.4    49   14.5   286    20.4   973.7    0.00 
 127   15:40   0.59   77.1    50   12.9   291    20.9   973.7    0.00 
 127   15:50   0.56   77.2    50   12.5   287    19.2   973.7    0.00 
 127   16:00   0.53   78.0    50    9.8   304    16.7   973.8    0.00 
 127   16:10   0.49   76.4    52   12.6   294    20.4   973.9    0.00 
 127   16:20   0.46   75.9    53    9.4   302    18.1   973.9    0.00 
 127   16:30   0.43   76.5    52    8.6   305    15.4   974.0    0.00 
 127   16:40   0.39   75.9    52    8.8   298    16.7   974.1    0.00 
 127   16:50   0.36   74.9    53   10.0   296    16.1   974.1    0.00 
 127   17:00   0.33   74.3    54    9.6   291    17.3   974.1    0.00 
 127   17:10   0.29   73.4    55   10.6   286    17.0   974.2    0.00 
 127   17:20   0.26   72.3    57   10.8   288    16.5   974.2    0.00 
 127   17:30   0.22   72.5    56    7.6   290    13.4   974.3    0.00 
 127   17:40   0.19   71.2    58   10.1   293    16.7   974.3    0.00 
 127   17:50   0.16   71.0    59    5.8   274    10.7   974.3    0.00 
 127   18:00   0.13   68.2    64    3.0   122     7.2   974.4    0.00 
 127   18:10   0.10   66.3    67    4.7   171     9.1   974.4    0.00 
 127   18:20   0.07   66.8    66    4.4   235    10.3   974.5    0.00 
 127   18:30   0.04   65.1    69    6.6   264    11.6   974.6    0.00 
 127   18:40   0.02   64.3    71    6.3   264     9.4   974.7    0.00 
 127   18:50   0.01   63.4    72    3.2   272     6.6   974.8    0.00 
 127   19:00   0.00   61.2    76    3.5   138     6.4   975.0    0.00 
 127   19:10   0.00   59.4    80    2.5   129     5.7   975.1    0.00 
 127   19:20   0.00   58.8    82    1.5   134     4.7   975.2    0.00 
 127   19:30   0.00   58.0    84    3.3   129     6.7   975.2    0.00 
 127   19:40   0.00   56.9    86    3.2   126     6.1   975.4    0.00 
 127   19:50   0.00   56.1    87    2.7   111     5.4   975.5    0.00 
 127   20:00   0.00   55.6    89    3.0   133     4.5   975.5    0.00 
 127   20:10   0.00   55.2    90    2.8   120     4.0   975.6    0.00 
 127   20:20   0.00   54.9    90    2.3    99     3.2   975.7    0.00 
 127   20:30   0.00   54.6    91    2.1   140     3.1   975.8    0.00 
 127   20:40   0.00   54.4    91    1.2   154     2.5   975.9    0.00 
 127   20:50   0.00   54.2    92    0.4    75     1.5   976.0    0.00 
 127   21:00   0.00   53.7    92    1.9    21     3.1   976.0    0.00 
 127   21:10   0.00   53.2    93    0.9    13     2.3   975.9    0.00 
 127   21:20   0.00   52.9    93    0.1     6     1.0   975.9    0.00 
 127   21:30   0.00   52.3    93    0.3   246     1.2   975.9    0.00 
 127   21:40   0.00   52.0    93    0.5    39     1.2   975.8    0.00 
 127   21:50   0.00   51.6    94    0.5    23     1.5   975.8    0.00 
 127   22:00   0.00   51.2    94    1.4    16     3.7   975.8    0.00 
 127   22:10   0.00   50.4    95    3.1     6     4.6   975.9    0.00 
 127   22:20   0.00   50.3    95    1.8     4     3.4   975.9    0.00 
 127   22:30   0.00   50.3    95    1.0   284     2.0   975.8    0.00 
 127   22:40   0.00   50.5    95    1.0   314     2.8   975.9    0.00 
 127   22:50   0.00   49.8    95    1.9     4     3.0   975.9    0.00 
 127   23:00   0.00   49.4    96    1.2   243     1.5   975.9    0.00 
 127   23:10   0.00   49.6    96    0.9   293     1.8   975.9    0.00 
 127   23:20   0.00   49.4    96    1.6    23     2.9   975.9    0.00 
 127   23:30   0.00   48.8    96    1.7     8     3.5   975.9    0.00 
 127   23:40   0.00   48.8    97    1.1   273     2.0   975.8    0.00 
 127   23:50   0.00   48.7    96    0.3    22     1.4   975.9    0.00 
 128    0:00   0.00   48.6    97    0.3   274     1.8   975.9    0.00 
 128    0:10   0.00   48.0    96    0.6    19     3.7   975.9    0.00 
 128    0:20   0.00   47.9    97    1.4    13     3.3   975.8    0.00 
 128    0:30   0.00   47.6    97    1.4    12     3.6   975.7    0.00 
 128    0:40   0.00   47.4    98    1.3   248     2.1   975.6    0.00 
 128    0:50   0.00   47.4    97    1.0   266     2.4   975.6    0.00 
 128    1:00   0.00   47.7    98    1.4   260     2.9   975.6    0.00 
 128    1:10   0.00   47.5    98    0.6   339     2.3   975.6    0.00 
 128    1:20   0.00   48.0    98    0.1    26     1.0   975.6    0.00 
 128    1:30   0.00   48.3    98    0.6    56     1.5   975.6    0.00 
 128    1:40   0.00   48.9    98    0.2     4     1.2   975.6    0.00 
 128    1:50   0.00   48.9    99    0.6   252     2.3   975.6    0.00 
 128    2:00   0.00   49.4    99    0.6   274     1.5   975.7    0.00 
 128    2:10   0.00   49.4    99    0.4   352     1.7   975.8    0.00 
 128    2:20   0.00   49.2    99    0.9    24     2.0   975.7    0.00 
 128    2:30   0.00   49.7   100    0.0     0     0.0   975.7    0.00 
 128    2:40   0.00   50.1   100    0.1   176     1.0   975.8    0.00 
 128    2:50   0.00   50.2   100    0.5    42     1.5   975.8    0.00 
 128    3:00   0.00   50.3   100    0.8    49     1.7   975.8    0.00 
 128    3:10   0.00   50.5   100    0.5    61     1.5   975.7    0.00 
 128    3:20   0.00   50.8   100    1.8    82     3.0   975.7    0.00 
 128    3:30   0.00   50.4   100    1.5   127     3.1   975.7    0.00 
 128    3:40   0.00   50.4   100    0.5    64     2.3   975.8    0.00 
 128    3:50   0.00   50.5   100    1.2    54     2.8   975.9    0.00 
 128    4:00   0.00   50.5   100    1.6    67     3.8   975.8    0.00 
 128    4:10   0.00   50.5   100    0.4    58     2.0   975.8    0.00 
 128    4:20   0.00   50.5   100    1.5    53     2.8   975.9    0.00 
 128    4:30   0.00   50.1   100    1.6    47     2.9   975.9    0.00 

Return to Sedgwick Reserve graphs page.


Western Regional Climate Center,wrcc@dri.edu